Time;durP1;ratioP1;P1;durP2;ratioP2;P2;SDS_P1;SDS_P2;PMS_P1;PMS_P2;Temp;Humidity;BMP_temperature;BMP_pressure;BME280_temperature;BME280_humidity;BME280_pressure;Samples;Min_cycle;Max_cycle;Signal;HPM_P1;HPM_P2
2023/09/21 00:01:03;;;;;;;3.22;0.98;;;14.20;99.90;;;;;;4865363;29;20526;-82
2023/09/21 00:03:30;;;;;;;3.60;0.68;;;14.10;99.90;;;;;;4865518;29;20033;-83
2023/09/21 00:05:57;;;;;;;5.35;0.63;;;14.10;99.90;;;;;;4856474;29;20111;-83
2023/09/21 00:08:24;;;;;;;6.10;0.80;;;14.10;99.90;;;;;;4862472;29;20056;-83
2023/09/21 00:10:54;;;;;;;3.60;0.90;;;14.10;99.90;;;;;;4860339;29;20411;-83
2023/09/21 00:13:26;;;;;;;3.33;0.50;;;14.10;99.90;;;;;;4859710;29;20057;-83
2023/09/21 00:15:55;;;;;;;3.28;0.70;;;14.00;99.90;;;;;;4849101;29;20030;-83
2023/09/21 00:18:21;;;;;;;4.72;0.70;;;14.00;99.90;;;;;;4861381;29;20041;-82
2023/09/21 00:20:56;;;;;;;5.47;0.90;;;14.00;99.90;;;;;;4865831;29;20502;-83
2023/09/21 00:23:26;;;;;;;4.80;0.80;;;14.00;99.90;;;;;;4865609;29;20574;-83
2023/09/21 00:25:58;;;;;;;3.15;0.70;;;14.00;99.90;;;;;;4864137;29;20033;-83
2023/09/21 00:28:25;;;;;;;4.10;0.70;;;13.90;99.90;;;;;;4864693;29;20041;-82
2023/09/21 00:31:02;;;;;;;4.50;0.75;;;14.00;99.90;;;;;;4860806;29;20289;-83
2023/09/21 00:33:32;;;;;;;3.17;0.70;;;13.90;99.90;;;;;;4867657;29;20029;-82
2023/09/21 00:35:58;;;;;;;5.38;0.60;;;13.90;99.90;;;;;;4871730;29;20076;-82
2023/09/21 00:38:24;;;;;;;4.13;0.82;;;13.90;99.90;;;;;;4870977;29;20041;-83
2023/09/21 00:40:55;;;;;;;5.35;0.80;;;13.90;99.90;;;;;;4867009;29;20052;-83
2023/09/21 00:43:25;;;;;;;9.45;0.88;;;13.90;99.90;;;;;;4865380;29;20060;-82
2023/09/21 00:45:53;;;;;;;5.15;0.98;;;13.90;99.90;;;;;;4869889;29;20621;-83
2023/09/21 00:48:25;;;;;;;2.67;0.68;;;13.90;99.90;;;;;;4868389;29;20522;-82
2023/09/21 00:50:57;;;;;;;5.00;0.90;;;13.90;99.90;;;;;;4868113;29;20075;-82
2023/09/21 00:53:27;;;;;;;3.97;0.82;;;13.90;99.90;;;;;;4865919;29;20048;-82
2023/09/21 00:55:57;;;;;;;6.00;0.80;;;13.90;99.90;;;;;;4868933;29;20063;-82
2023/09/21 00:58:25;;;;;;;8.00;1.00;;;13.90;99.90;;;;;;4870273;29;20420;-81
2023/09/21 01:00:54;;;;;;;4.13;0.90;;;13.90;99.90;;;;;;4868740;29;20041;-80
2023/09/21 01:03:20;;;;;;;4.22;0.85;;;13.80;99.90;;;;;;4863065;29;20532;-81
2023/09/21 01:05:48;;;;;;;2.75;0.88;;;13.80;99.90;;;;;;4862582;29;20148;-81
2023/09/21 01:08:22;;;;;;;4.85;0.77;;;13.80;99.90;;;;;;4854891;29;20129;-82
2023/09/21 01:10:49;;;;;;;5.00;0.80;;;13.80;99.90;;;;;;4865172;29;20048;-82
2023/09/21 01:13:19;;;;;;;8.35;1.35;;;13.80;99.90;;;;;;4866780;29;20048;-82
2023/09/21 01:15:58;;;;;;;11.33;0.97;;;13.80;99.90;;;;;;4869623;29;20040;-82
2023/09/21 01:18:24;;;;;;;3.85;0.90;;;13.70;99.90;;;;;;4865694;29;20101;-82
2023/09/21 01:20:50;;;;;;;9.00;1.30;;;13.70;99.90;;;;;;4863880;29;20752;-82
2023/09/21 01:23:19;;;;;;;9.00;1.02;;;13.60;99.90;;;;;;4853133;29;20056;-82
2023/09/21 01:25:50;;;;;;;5.57;1.10;;;13.60;99.90;;;;;;4868020;29;20040;-82
2023/09/21 01:28:20;;;;;;;3.95;1.20;;;13.60;99.90;;;;;;4866832;29;20053;-82
2023/09/21 01:30:48;;;;;;;10.30;3.10;;;13.70;99.90;;;;;;4860982;29;20049;-83
2023/09/21 01:33:17;;;;;;;7.65;3.40;;;13.60;99.90;;;;;;4860674;29;20380;-82
2023/09/21 01:35:44;;;;;;;11.68;3.15;;;13.60;99.90;;;;;;4864938;29;20089;-82
2023/09/21 01:38:13;;;;;;;8.85;2.70;;;13.60;99.90;;;;;;4861103;29;20108;-82
2023/09/21 01:40:41;;;;;;;5.78;2.15;;;13.60;99.90;;;;;;4866952;29;20041;-82
2023/09/21 01:43:08;;;;;;;9.55;2.80;;;13.60;99.90;;;;;;4865550;29;20029;-82
2023/09/21 01:45:40;;;;;;;6.82;2.30;;;13.60;99.90;;;;;;4863362;29;20071;-82
2023/09/21 01:48:09;;;;;;;5.22;1.90;;;13.60;99.90;;;;;;4861768;29;20037;-80
2023/09/21 01:50:49;;;;;;;6.30;2.20;;;13.50;99.90;;;;;;4860360;29;20040;-82
2023/09/21 01:53:17;;;;;;;9.63;2.80;;;13.50;99.90;;;;;;4861183;29;20467;-83
2023/09/21 01:55:44;;;;;;;5.82;2.50;;;13.50;99.90;;;;;;4864124;29;20044;-82
2023/09/21 01:58:11;;;;;;;7.90;2.65;;;13.50;99.90;;;;;;4855405;29;20101;-84
2023/09/21 02:00:41;;;;;;;8.75;3.05;;;13.50;99.90;;;;;;4856471;29;20044;-82
2023/09/21 02:03:12;;;;;;;10.05;2.95;;;13.40;99.90;;;;;;4856813;29;20141;-82
2023/09/21 02:05:41;;;;;;;9.20;3.28;;;13.40;99.90;;;;;;4852098;29;20164;-83
2023/09/21 02:08:08;;;;;;;7.22;3.00;;;13.40;99.90;;;;;;4857601;29;20052;-83
2023/09/21 02:10:35;;;;;;;6.70;3.30;;;13.40;99.90;;;;;;4857630;29;20037;-82
2023/09/21 02:13:05;;;;;;;12.93;4.32;;;13.30;99.90;;;;;;4860897;29;20052;-82
2023/09/21 02:15:32;;;;;;;8.10;3.78;;;13.30;99.90;;;;;;4859077;29;20029;-83
2023/09/21 02:17:57;;;;;;;11.48;4.28;;;13.20;99.90;;;;;;4859908;29;20266;-83
2023/09/21 02:20:24;;;;;;;12.07;4.18;;;13.20;99.90;;;;;;4866037;29;20479;-83
2023/09/21 02:22:51;;;;;;;10.77;3.67;;;13.20;99.90;;;;;;4859098;29;20025;-82
2023/09/21 02:25:18;;;;;;;9.38;3.92;;;13.20;99.90;;;;;;4862130;29;20072;-83
2023/09/21 02:27:48;;;;;;;5.28;3.08;;;13.10;99.90;;;;;;4853443;29;20535;-83
2023/09/21 02:30:17;;;;;;;7.68;3.28;;;13.10;99.90;;;;;;4861469;29;20056;-82
2023/09/21 02:32:45;;;;;;;9.93;3.55;;;13.10;99.90;;;;;;4863771;29;20527;-83
2023/09/21 02:35:15;;;;;;;12.38;3.33;;;13.10;99.90;;;;;;4861521;29;20044;-83
2023/09/21 02:37:47;;;;;;;6.15;2.95;;;13.00;99.90;;;;;;4858143;29;20109;-83
2023/09/21 02:40:17;;;;;;;9.38;3.45;;;13.00;99.90;;;;;;4854142;29;20493;-83
2023/09/21 02:42:53;;;;;;;8.10;3.08;;;13.00;99.90;;;;;;4863002;29;20629;-82
2023/09/21 02:45:21;;;;;;;5.00;2.35;;;13.00;99.90;;;;;;4855245;29;20039;-83
2023/09/21 02:47:47;;;;;;;7.78;2.47;;;12.90;99.90;;;;;;4860647;29;20081;-83
2023/09/21 02:50:14;;;;;;;4.63;2.30;;;12.90;99.90;;;;;;4860561;29;20033;-83
2023/09/21 02:52:56;;;;;;;7.45;2.63;;;12.80;99.90;;;;;;4856017;29;20040;-82
2023/09/21 02:55:22;;;;;;;;;;;12.90;99.90;;;;;;4866881;29;20495;-83
2023/09/21 02:57:59;;;;;;;7.43;2.53;;;12.80;99.90;;;;;;4858682;29;19916;-83
2023/09/21 03:00:34;;;;;;;3.05;1.83;;;12.80;99.90;;;;;;4864720;29;20041;-83
2023/09/21 03:03:01;;;;;;;4.57;2.10;;;12.70;99.90;;;;;;4864386;29;20526;-82
2023/09/21 03:05:27;;;;;;;6.28;2.25;;;12.60;99.90;;;;;;4866888;29;20128;-82
2023/09/21 03:07:56;;;;;;;5.75;1.70;;;12.60;99.90;;;;;;4864274;29;20117;-83
2023/09/21 03:10:23;;;;;;;3.00;1.48;;;12.60;99.90;;;;;;4866304;29;20089;-83
2023/09/21 03:12:49;;;;;;;3.15;1.83;;;12.50;99.90;;;;;;4867349;29;20060;-82
2023/09/21 03:15:18;;;;;;;5.38;1.77;;;12.50;99.90;;;;;;4866173;29;20168;-83
2023/09/21 03:17:44;;;;;;;4.40;2.28;;;12.50;99.90;;;;;;4865221;29;20029;-83
2023/09/21 03:20:12;;;;;;;4.57;2.33;;;12.50;99.90;;;;;;4856984;29;20037;-83
2023/09/21 03:22:39;;;;;;;3.28;2.35;;;12.50;99.90;;;;;;4878248;29;20123;-83
2023/09/21 03:25:11;;;;;;;3.25;1.75;;;12.50;99.90;;;;;;4866479;29;20495;-83
2023/09/21 03:27:40;;;;;;;4.32;2.15;;;12.50;99.90;;;;;;4863771;29;20128;-83
2023/09/21 03:30:06;;;;;;;2.17;1.67;;;12.60;99.90;;;;;;4860475;29;20064;-83
2023/09/21 03:32:32;;;;;;;3.08;2.25;;;12.60;99.90;;;;;;4867117;29;20033;-83
2023/09/21 03:34:58;;;;;;;2.33;1.63;;;12.60;99.90;;;;;;4866635;29;20480;-82
2023/09/21 03:37:24;;;;;;;2.83;1.90;;;12.60;99.90;;;;;;4862315;29;20093;-83
2023/09/21 03:39:49;;;;;;;4.43;2.13;;;12.70;99.90;;;;;;4864522;29;20033;-82
2023/09/21 03:42:15;;;;;;;2.70;1.80;;;12.70;99.90;;;;;;4867310;29;20051;-82
2023/09/21 03:44:42;;;;;;;3.13;1.50;;;12.70;99.90;;;;;;4863373;29;20565;-83
2023/09/21 03:47:11;;;;;;;8.07;1.80;;;12.80;99.90;;;;;;4865191;29;20037;-83
2023/09/21 03:49:37;;;;;;;5.82;1.35;;;12.80;99.90;;;;;;4861126;29;20590;-83
2023/09/21 03:52:03;;;;;;;3.25;1.70;;;12.80;99.90;;;;;;4864545;29;20037;-83
2023/09/21 03:54:29;;;;;;;7.30;1.80;;;12.80;99.90;;;;;;4864038;29;20059;-83
2023/09/21 03:56:54;;;;;;;4.72;1.30;;;12.80;99.90;;;;;;4862854;29;20074;-83
2023/09/21 03:59:20;;;;;;;5.38;1.30;;;12.90;99.90;;;;;;4863278;29;20894;-82
2023/09/21 04:01:46;;;;;;;4.45;1.45;;;12.90;99.90;;;;;;4860701;29;20045;-83
2023/09/21 04:04:17;;;;;;;4.88;1.50;;;12.90;99.90;;;;;;4866166;29;20029;-83
2023/09/21 04:06:43;;;;;;;;;;;12.90;99.90;;;;;;4866165;29;20045;-82
2023/09/21 04:09:09;;;;;;;3.83;1.40;;;12.90;99.90;;;;;;4856589;29;20323;-83
2023/09/21 04:11:35;;;;;;;3.25;1.48;;;12.90;99.90;;;;;;4863114;29;20033;-83
2023/09/21 04:14:03;;;;;;;3.13;1.50;;;12.80;99.90;;;;;;4868334;29;20029;-83
2023/09/21 04:16:29;;;;;;;3.80;1.55;;;12.80;99.90;;;;;;4867379;29;20096;-83
2023/09/21 04:18:55;;;;;;;4.03;1.55;;;12.80;99.90;;;;;;4862179;29;20554;-83
2023/09/21 04:21:23;;;;;;;2.65;1.63;;;12.80;99.90;;;;;;4862961;29;20062;-84
2023/09/21 04:23:49;;;;;;;2.60;1.33;;;12.80;99.90;;;;;;4860327;29;20123;-83
2023/09/21 04:26:15;;;;;;;3.97;1.40;;;12.80;99.90;;;;;;4863365;29;20120;-83
2023/09/21 04:28:41;;;;;;;5.53;1.35;;;12.70;99.90;;;;;;4863113;29;20067;-83
2023/09/21 04:31:09;;;;;;;4.05;1.10;;;12.80;99.90;;;;;;4859764;29;20033;-83
2023/09/21 04:33:35;;;;;;;3.65;0.98;;;12.80;99.90;;;;;;4861983;29;20029;-83
2023/09/21 04:36:01;;;;;;;3.17;1.40;;;12.80;99.90;;;;;;4868072;29;20068;-83
2023/09/21 04:38:26;;;;;;;7.88;1.58;;;12.80;99.90;;;;;;4866089;29;20032;-83
2023/09/21 04:40:52;;;;;;;8.40;1.00;;;12.80;99.90;;;;;;4863372;29;20539;-82
2023/09/21 04:43:18;;;;;;;9.23;1.10;;;12.70;99.90;;;;;;4866704;29;20033;-83
2023/09/21 04:45:48;;;;;;;10.00;1.10;;;12.70;99.90;;;;;;4861930;29;20061;-83
2023/09/21 04:48:13;;;;;;;2.53;0.70;;;12.70;99.90;;;;;;4865238;29;20116;-83
2023/09/21 04:50:42;;;;;;;2.80;0.85;;;12.70;99.90;;;;;;4866358;29;20105;-83
2023/09/21 04:53:07;;;;;;;3.80;1.00;;;12.70;99.90;;;;;;4869877;29;20530;-83
2023/09/21 04:55:33;;;;;;;4.60;0.80;;;12.70;99.90;;;;;;4862995;29;20072;-83
2023/09/21 04:57:58;;;;;;;5.32;0.80;;;12.70;99.90;;;;;;4867229;29;20523;-83
2023/09/21 05:00:24;;;;;;;6.57;1.13;;;12.70;99.90;;;;;;4864456;29;20079;-83
2023/09/21 05:02:49;;;;;;;6.47;1.20;;;12.70;99.90;;;;;;4860968;29;20032;-83
2023/09/21 05:05:17;;;;;;;3.42;1.23;;;12.70;99.90;;;;;;4864801;29;20044;-83
2023/09/21 05:07:42;;;;;;;3.67;0.85;;;12.60;99.90;;;;;;4857330;29;20085;-84
2023/09/21 05:10:12;;;;;;;3.53;0.93;;;12.60;99.90;;;;;;4857506;29;20433;-83
2023/09/21 05:12:37;;;;;;;4.72;0.82;;;12.60;99.90;;;;;;4849827;29;20058;-83
2023/09/21 05:15:07;;;;;;;8.70;1.30;;;12.60;99.90;;;;;;4853831;29;20029;-83
2023/09/21 05:17:36;;;;;;;4.82;0.93;;;12.60;99.90;;;;;;4855367;29;20254;-83
2023/09/21 05:20:05;;;;;;;2.90;1.13;;;12.60;99.90;;;;;;4860337;29;20101;-83
2023/09/21 05:22:32;;;;;;;4.28;1.27;;;12.60;99.90;;;;;;4864940;29;20132;-83
2023/09/21 05:24:59;;;;;;;4.57;1.65;;;12.60;99.90;;;;;;4865200;29;20025;-83
2023/09/21 05:27:25;;;;;;;6.05;1.77;;;12.60;99.90;;;;;;4857854;29;20302;-82
2023/09/21 05:29:50;;;;;;;12.65;2.42;;;12.60;99.90;;;;;;4866973;29;20133;-83
2023/09/21 05:32:16;;;;;;;8.57;2.10;;;12.60;99.90;;;;;;4867496;29;20448;-84
2023/09/21 05:34:41;;;;;;;5.45;1.67;;;12.60;99.90;;;;;;4873305;29;20068;-83
2023/09/21 05:37:07;;;;;;;9.82;1.70;;;12.60;99.90;;;;;;4870054;29;20140;-82
2023/09/21 05:39:33;;;;;;;8.40;1.38;;;12.60;99.90;;;;;;4871498;29;20163;-83
2023/09/21 05:41:58;;;;;;;3.50;1.10;;;12.60;99.90;;;;;;4869710;29;20076;-83
2023/09/21 05:44:25;;;;;;;7.10;1.20;;;12.60;99.90;;;;;;4868930;29;20499;-83
2023/09/21 05:46:51;;;;;;;6.78;1.20;;;12.60;99.90;;;;;;4860016;29;21001;-83
2023/09/21 05:49:22;;;;;;;4.28;1.15;;;12.60;99.90;;;;;;4863953;29;20696;-83
2023/09/21 05:51:56;;;;;;;5.32;1.08;;;12.60;99.90;;;;;;4867254;29;20181;-83
2023/09/21 05:54:26;;;;;;;4.60;0.95;;;12.60;99.90;;;;;;4854746;29;20736;-83
2023/09/21 05:56:55;;;;;;;4.13;1.15;;;12.50;99.90;;;;;;4868881;29;20072;-82
2023/09/21 05:59:22;;;;;;;6.30;1.23;;;12.50;99.90;;;;;;4869602;29;20067;-83
2023/09/21 06:01:48;;;;;;;4.05;1.20;;;12.40;99.90;;;;;;4861122;29;20025;-83
2023/09/21 06:04:16;;;;;;;4.07;1.05;;;12.40;99.90;;;;;;4870950;29;20613;-83
2023/09/21 06:06:43;;;;;;;4.50;1.00;;;12.40;99.90;;;;;;4867700;29;20139;-83
2023/09/21 06:09:10;;;;;;;6.43;1.42;;;12.40;99.90;;;;;;4868938;29;20071;-83
2023/09/21 06:11:36;;;;;;;5.10;1.00;;;12.30;99.90;;;;;;4879451;29;20425;-82
2023/09/21 06:14:02;;;;;;;8.13;1.02;;;12.30;99.90;;;;;;4859188;29;20042;-83
2023/09/21 06:16:29;;;;;;;5.05;1.23;;;12.30;99.90;;;;;;4860493;29;20567;-84
2023/09/21 06:18:55;;;;;;;4.03;1.13;;;12.40;99.90;;;;;;4866776;29;20029;-82
2023/09/21 06:21:21;;;;;;;4.68;1.20;;;12.30;99.90;;;;;;4866863;29;20055;-84
2023/09/21 06:23:49;;;;;;;3.90;1.15;;;12.40;99.90;;;;;;4863148;29;20041;-83
2023/09/21 06:26:15;;;;;;;4.65;1.13;;;12.40;99.90;;;;;;4857464;29;20033;-83
2023/09/21 06:28:44;;;;;;;4.25;1.10;;;12.40;99.90;;;;;;4854800;29;20045;-83
2023/09/21 06:31:13;;;;;;;2.10;1.05;;;12.50;99.90;;;;;;4859395;29;20036;-84
2023/09/21 06:33:40;;;;;;;4.32;1.17;;;12.50;99.90;;;;;;4860404;29;20029;-83
2023/09/21 06:36:08;;;;;;;5.18;2.50;;;12.60;99.90;;;;;;4875159;29;20806;-87
2023/09/21 06:38:33;;;;;;;9.73;4.15;;;12.70;99.90;;;;;;4869560;29;20036;-89
2023/09/21 06:41:01;;;;;;;4.38;1.40;;;12.80;99.90;;;;;;4862763;29;20172;-83
2023/09/21 06:43:30;;;;;;;3.35;1.10;;;12.80;99.90;;;;;;4868804;29;20104;-88
2023/09/21 06:45:56;;;;;;;4.43;2.25;;;12.90;99.90;;;;;;4864417;29;20199;-81
2023/09/21 06:48:21;;;;;;;6.25;1.90;;;13.10;99.90;;;;;;4867504;29;20499;-83
2023/09/21 06:50:47;;;;;;;5.97;1.70;;;13.20;99.90;;;;;;4865542;29;20036;-80
2023/09/21 06:53:12;;;;;;;7.10;1.70;;;13.30;99.90;;;;;;4862275;29;20025;-87
2023/09/21 06:55:38;;;;;;;5.38;1.58;;;13.40;99.90;;;;;;4863149;29;20618;-88
2023/09/21 06:58:06;;;;;;;6.13;1.60;;;13.50;99.90;;;;;;4868097;29;20119;-90
2023/09/21 07:00:31;;;;;;;3.67;1.83;;;13.50;99.90;;;;;;4865799;29;20150;-84
2023/09/21 07:02:57;;;;;;;4.03;1.10;;;13.50;99.90;;;;;;4862488;29;20505;-85
2023/09/21 07:05:23;;;;;;;1.80;1.10;;;13.50;99.90;;;;;;4864075;29;20105;-87
2023/09/21 07:07:48;;;;;;;5.55;1.20;;;13.50;99.90;;;;;;4530556;29;10000382;-83
2023/09/21 07:10:16;;;;;;;5.32;1.38;;;13.60;99.90;;;;;;4870075;29;20025;-84
2023/09/21 07:12:41;;;;;;;6.32;1.05;;;13.70;99.90;;;;;;4866519;29;20033;-84
2023/09/21 07:15:07;;;;;;;5.38;1.30;;;13.70;99.90;;;;;;4872218;29;20037;-82
2023/09/21 07:17:34;;;;;;;2.25;1.08;;;13.80;99.90;;;;;;4882516;29;20427;-85
2023/09/21 07:20:00;;;;;;;3.13;1.25;;;13.80;99.90;;;;;;4873766;29;20159;-81
2023/09/21 07:22:26;;;;;;;4.57;1.23;;;13.70;99.90;;;;;;4859884;29;20029;-85
2023/09/21 07:24:51;;;;;;;4.28;1.40;;;13.70;99.90;;;;;;4864678;29;20073;-79
2023/09/21 07:27:17;;;;;;;2.80;1.33;;;13.70;99.90;;;;;;4860092;29;20057;-80
2023/09/21 07:29:43;;;;;;;3.97;1.60;;;13.80;99.90;;;;;;4853580;29;20056;-77
2023/09/21 07:32:10;;;;;;;5.35;1.63;;;13.90;99.90;;;;;;4862615;29;20029;-77
2023/09/21 07:34:36;;;;;;;6.47;1.60;;;14.10;99.90;;;;;;4864472;29;20055;-83
2023/09/21 07:37:02;;;;;;;3.75;1.33;;;14.30;99.90;;;;;;4867733;29;20591;-86
2023/09/21 07:39:28;;;;;;;3.92;1.33;;;14.60;99.90;;;;;;4870520;29;20049;-85
2023/09/21 07:41:54;;;;;;;3.42;1.67;;;14.80;99.90;;;;;;4864543;29;20029;-80
2023/09/21 07:44:22;;;;;;;7.57;1.55;;;15.10;99.90;;;;;;4866789;29;20033;-81
2023/09/21 07:46:49;;;;;;;5.18;1.50;;;15.20;99.90;;;;;;4866506;29;20136;-81
2023/09/21 07:49:15;;;;;;;3.63;1.40;;;15.10;99.90;;;;;;4862687;29;20499;-82
2023/09/21 07:51:41;;;;;;;11.02;1.30;;;15.00;99.90;;;;;;4868619;29;20037;-80
2023/09/21 07:54:07;;;;;;;4.28;1.10;;;14.80;99.90;;;;;;4857997;29;20140;-80
2023/09/21 07:56:33;;;;;;;3.35;0.90;;;14.60;99.90;;;;;;4869636;29;20242;-78
2023/09/21 07:58:58;;;;;;;5.30;1.10;;;14.50;99.90;;;;;;4867317;29;20394;-80
2023/09/21 08:01:26;;;;;;;2.47;0.80;;;14.40;99.90;;;;;;4868023;29;20033;-79
2023/09/21 08:03:54;;;;;;;6.82;1.05;;;14.40;99.90;;;;;;4869013;29;20065;-83
2023/09/21 08:06:20;;;;;;;6.05;1.13;;;14.50;99.90;;;;;;4870302;29;20135;-90
2023/09/21 08:08:46;;;;;;;6.25;1.23;;;14.60;99.90;;;;;;4869811;29;20093;-88
2023/09/21 08:11:12;;;;;;;6.88;0.90;;;14.60;99.90;;;;;;4864022;29;20029;-81
2023/09/21 08:13:39;;;;;;;5.43;0.90;;;14.70;99.90;;;;;;4865009;29;20108;-92
2023/09/21 08:16:08;;;;;;;3.83;0.80;;;14.70;99.90;;;;;;4862729;29;20484;-84
2023/09/21 08:18:36;;;;;;;4.15;0.88;;;14.70;99.90;;;;;;4863690;29;20460;-82
2023/09/21 08:21:03;;;;;;;5.95;1.30;;;14.70;99.90;;;;;;4860142;29;20481;-79
2023/09/21 08:23:29;;;;;;;6.57;0.90;;;14.70;99.90;;;;;;4865880;29;20036;-82
2023/09/21 08:25:55;;;;;;;5.47;1.00;;;14.70;99.90;;;;;;4870200;29;20037;-86
2023/09/21 08:28:20;;;;;;;9.43;1.52;;;14.90;99.90;;;;;;4867663;29;20033;-79
2023/09/21 08:30:47;;;;;;;6.22;1.30;;;15.50;99.90;;;;;;4863529;29;20163;-81
2023/09/21 08:33:13;;;;;;;4.90;0.80;;;16.30;99.90;;;;;;4861585;29;20037;-78
2023/09/21 08:35:40;;;;;;;2.08;0.88;;;17.10;99.90;;;;;;4861058;29;20075;-82
2023/09/21 08:38:06;;;;;;;6.05;1.10;;;19.00;99.90;;;;;;4861702;29;20037;-81
2023/09/21 08:40:34;;;;;;;6.47;1.10;;;21.20;99.90;;;;;;4867475;29;20635;-78
2023/09/21 08:43:00;;;;;;;3.38;0.80;;;23.20;99.90;;;;;;4860137;29;20431;-83
2023/09/21 08:45:26;;;;;;;5.13;0.85;;;24.00;99.90;;;;;;4874389;29;20089;-83
2023/09/21 08:47:52;;;;;;;2.90;0.70;;;24.70;99.90;;;;;;4862742;29;20036;-81
2023/09/21 08:50:17;;;;;;;1.55;0.52;;;26.00;99.90;;;;;;4863245;29;20029;-85
2023/09/21 08:52:44;;;;;;;2.75;0.60;;;26.10;99.90;;;;;;4864454;29;20029;-83
2023/09/21 08:55:12;;;;;;;3.63;1.08;;;26.30;99.90;;;;;;4862533;29;20570;-82
2023/09/21 08:57:38;;;;;;;5.63;0.90;;;26.60;99.90;;;;;;4865831;29;20032;-81
2023/09/21 09:00:08;;;;;;;8.55;0.90;;;27.00;99.90;;;;;;4858303;29;20073;-82
2023/09/21 09:02:35;;;;;;;6.82;0.80;;;26.80;99.90;;;;;;4864949;29;21815;-81
2023/09/21 09:05:08;;;;;;;4.35;1.10;;;26.10;99.90;;;;;;4857631;29;20049;-79
2023/09/21 09:07:41;;;;;;;3.92;0.60;;;25.40;99.90;;;;;;4852954;29;20615;-77
2023/09/21 09:10:12;;;;;;;3.88;0.70;;;25.30;99.90;;;;;;4865177;29;20032;-82
2023/09/21 09:12:39;;;;;;;2.28;0.70;;;26.00;99.90;;;;;;4858815;29;20155;-79
2023/09/21 09:15:08;;;;;;;3.47;0.70;;;26.60;99.60;;;;;;4859189;29;20431;-79
2023/09/21 09:17:35;;;;;;;4.18;0.70;;;26.90;99.90;;;;;;4859186;29;20052;-79
2023/09/21 09:20:05;;;;;;;5.70;0.93;;;26.40;97.90;;;;;;4862203;29;20049;-79
2023/09/21 09:22:33;;;;;;;9.80;1.17;;;26.70;99.80;;;;;;4855600;29;20436;-77
2023/09/21 09:25:04;;;;;;;6.03;0.90;;;27.00;97.60;;;;;;4862641;29;20593;-77
2023/09/21 09:27:34;;;;;;;5.13;1.05;;;26.90;96.10;;;;;;4519332;29;10000381;-78
2023/09/21 09:30:00;;;;;;;3.75;1.13;;;26.80;99.90;;;;;;4859234;29;20053;-79
2023/09/21 09:32:35;;;;;;;6.57;1.15;;;27.50;94.70;;;;;;4862086;29;20098;-78
2023/09/21 09:35:03;;;;;;;4.97;0.98;;;27.30;93.00;;;;;;4857886;29;20033;-78
2023/09/21 09:37:28;;;;;;;5.65;1.02;;;26.70;93.50;;;;;;4860246;29;20472;-78
2023/09/21 09:39:56;;;;;;;5.28;1.10;;;26.40;96.30;;;;;;4863568;29;20071;-78
2023/09/21 09:42:22;;;;;;;6.30;1.73;;;26.10;96.70;;;;;;4862909;29;21065;-77
2023/09/21 09:44:50;;;;;;;6.10;1.17;;;26.20;98.60;;;;;;4865239;29;20098;-77
2023/09/21 09:47:16;;;;;;;6.25;1.40;;;26.50;96.40;;;;;;4863577;29;20136;-77
2023/09/21 09:49:49;;;;;;;7.20;1.20;;;26.40;96.20;;;;;;4866332;29;20480;-78
2023/09/21 09:52:18;;;;;;;5.07;0.98;;;26.00;97.70;;;;;;4858980;29;20052;-79
2023/09/21 09:54:48;;;;;;;8.13;1.10;;;25.60;98.70;;;;;;4860984;29;20101;-78
2023/09/21 09:57:15;;;;;;;4.18;0.90;;;25.10;99.00;;;;;;4849196;29;20025;-78
2023/09/21 09:59:42;;;;;;;6.82;1.10;;;24.60;99.00;;;;;;4854789;29;20986;-80
2023/09/21 10:02:13;;;;;;;5.38;0.98;;;24.00;99.90;;;;;;4859051;29;20787;-77
2023/09/21 10:04:40;;;;;;;7.32;1.33;;;23.60;99.90;;;;;;4855917;29;20188;-77
2023/09/21 10:07:09;;;;;;;3.95;0.75;;;23.20;99.90;;;;;;4852953;29;20487;-78
2023/09/21 10:09:37;;;;;;;8.85;1.10;;;23.10;99.90;;;;;;4856667;29;20037;-78
2023/09/21 10:12:03;;;;;;;7.35;1.42;;;23.30;99.90;;;;;;4856486;29;20045;-78
2023/09/21 10:14:35;;;;;;;5.60;1.23;;;24.00;99.90;;;;;;4862485;29;20036;-78
2023/09/21 10:17:04;;;;;;;6.78;1.25;;;25.40;99.40;;;;;;4859029;29;20040;-78
2023/09/21 10:19:30;;;;;;;8.68;1.58;;;26.50;93.50;;;;;;4858367;29;21170;-81
2023/09/21 10:22:03;;;;;;;3.90;1.23;;;27.20;92.70;;;;;;4855852;29;20033;-78
2023/09/21 10:24:30;;;;;;;8.23;1.00;;;27.80;94.50;;;;;;4856417;29;20483;-78
2023/09/21 10:27:03;;;;;;;4.80;1.02;;;28.70;90.70;;;;;;4857969;29;20041;-78
2023/09/21 10:29:40;;;;;;;2.50;0.80;;;28.90;81.10;;;;;;4862024;29;20133;-78
2023/09/21 10:32:06;;;;;;;6.13;0.95;;;28.10;89.40;;;;;;4859039;29;20048;-82
2023/09/21 10:34:32;;;;;;;5.63;0.88;;;28.20;90.10;;;;;;4864380;29;20032;-80
2023/09/21 10:37:01;;;;;;;6.15;1.08;;;29.20;77.60;;;;;;4861753;29;20029;-75
2023/09/21 10:39:29;;;;;;;3.80;1.13;;;30.10;80.00;;;;;;4862228;29;20044;-79
2023/09/21 10:42:08;;;;;;;3.30;0.90;;;30.70;67.80;;;;;;4862243;29;20384;-78
2023/09/21 10:44:53;;;;;;;4.43;1.20;;;31.10;71.10;;;;;;4861375;29;20124;-79
2023/09/21 10:47:33;;;;;;;7.65;1.02;;;30.70;64.70;;;;;;4861306;29;20036;-79
2023/09/21 10:50:02;;;;;;;;;;;29.90;60.60;;;;;;4846138;29;20021;-79
2023/09/21 10:52:28;;;;;;;5.22;1.30;;;28.20;64.90;;;;;;4866614;29;19923;-79
2023/09/21 10:54:58;;;;;;;7.03;1.00;;;26.50;72.70;;;;;;4859668;29;20069;-78
2023/09/21 10:57:28;;;;;;;3.67;0.95;;;24.90;81.10;;;;;;4869337;29;20807;-78
2023/09/21 10:59:55;;;;;;;5.38;1.00;;;23.40;92.60;;;;;;4855553;29;20040;-78
2023/09/21 11:02:22;;;;;;;5.90;1.20;;;22.40;99.90;;;;;;4856902;29;20052;-78
2023/09/21 11:04:49;;;;;;;4.95;1.05;;;21.70;99.90;;;;;;4861028;29;20546;-78
2023/09/21 11:07:18;;;;;;;6.93;1.23;;;21.50;99.90;;;;;;4859952;29;20040;-78
2023/09/21 11:09:44;;;;;;;6.85;1.20;;;21.60;99.90;;;;;;4861180;29;20040;-77
2023/09/21 11:12:13;;;;;;;5.22;1.10;;;21.80;99.90;;;;;;4861129;29;20549;-78
2023/09/21 11:14:45;;;;;;;4.47;1.38;;;21.90;99.90;;;;;;4855577;29;20061;-79
2023/09/21 11:17:11;;;;;;;6.10;1.30;;;21.90;99.90;;;;;;4846070;29;20033;-78
2023/09/21 11:19:42;;;;;;;7.95;1.08;;;21.80;99.90;;;;;;4849446;29;20088;-77
2023/09/21 11:22:09;;;;;;;6.30;1.25;;;21.60;99.90;;;;;;4858307;29;20029;-78
2023/09/21 11:24:36;;;;;;;6.25;1.00;;;21.40;99.90;;;;;;4857785;29;20484;-78
2023/09/21 11:27:09;;;;;;;7.25;1.10;;;21.10;99.90;;;;;;4860439;29;20519;-79
2023/09/21 11:29:35;;;;;;;4.38;0.93;;;20.80;99.90;;;;;;4862501;29;20076;-79
2023/09/21 11:32:01;;;;;;;7.72;0.93;;;20.40;99.90;;;;;;4861121;29;20064;-80
2023/09/21 11:34:27;;;;;;;6.70;1.17;;;20.20;99.90;;;;;;4857854;29;20413;-78
2023/09/21 11:36:55;;;;;;;5.93;0.82;;;20.00;99.90;;;;;;4861955;29;20032;-79
2023/09/21 11:39:27;;;;;;;8.32;1.20;;;19.90;99.90;;;;;;4861954;29;20068;-79
2023/09/21 11:41:54;;;;;;;6.03;0.95;;;19.90;99.90;;;;;;4865439;29;20511;-79
2023/09/21 11:44:20;;;;;;;3.17;0.88;;;19.90;99.90;;;;;;4858995;29;20165;-75
2023/09/21 11:46:47;;;;;;;7.38;1.50;;;20.00;99.90;;;;;;4862317;29;20047;-78
2023/09/21 11:49:14;;;;;;;7.82;1.70;;;20.10;99.90;;;;;;4862119;29;20036;-78
2023/09/21 11:51:43;;;;;;;7.13;1.08;;;19.90;99.90;;;;;;4852095;29;20029;-79
2023/09/21 11:54:11;;;;;;;6.10;1.10;;;19.70;99.90;;;;;;4866729;29;20047;-79
2023/09/21 11:56:37;;;;;;;6.78;0.90;;;19.40;99.90;;;;;;4864133;29;20051;-80
2023/09/21 11:59:06;;;;;;;6.75;1.10;;;19.20;99.90;;;;;;4862917;29;20440;-79
2023/09/21 12:01:34;;;;;;;8.77;1.33;;;19.10;99.90;;;;;;4867214;29;20161;-87
2023/09/21 12:04:03;;;;;;;5.35;0.90;;;18.90;99.90;;;;;;4869154;29;20033;-88
2023/09/21 12:06:32;;;;;;;3.92;0.90;;;18.90;99.90;;;;;;4853902;29;20037;-88
2023/09/21 12:08:58;;;;;;;5.40;1.05;;;18.70;99.90;;;;;;4863674;29;20656;-86
2023/09/21 12:11:24;;;;;;;6.47;0.93;;;18.50;99.90;;;;;;4869336;29;20083;-87
2023/09/21 12:13:49;;;;;;;7.43;1.30;;;18.40;99.90;;;;;;4866473;29;20032;-89
2023/09/21 12:16:16;;;;;;;3.22;0.98;;;18.30;99.90;;;;;;4879015;29;20025;-89
2023/09/21 12:18:43;;;;;;;9.52;1.70;;;18.20;99.90;;;;;;4861418;29;20048;-88
2023/09/21 12:21:09;;;;;;;5.10;1.27;;;18.30;99.90;;;;;;4863844;29;20037;-87
2023/09/21 12:23:35;;;;;;;6.35;1.30;;;18.20;99.90;;;;;;4867962;29;20029;-91
2023/09/21 12:26:00;;;;;;;6.63;1.50;;;18.30;99.90;;;;;;4863497;29;20120;-89
2023/09/21 12:28:27;;;;;;;6.95;1.33;;;18.40;99.90;;;;;;4870789;29;20227;-87
2023/09/21 12:30:54;;;;;;;7.07;1.40;;;18.50;99.90;;;;;;4867904;29;20089;-87
2023/09/21 12:33:20;;;;;;;8.20;1.30;;;18.50;99.90;;;;;;4867822;29;20412;-87
2023/09/21 12:35:46;;;;;;;6.75;1.38;;;18.60;99.90;;;;;;4863732;29;20889;-88
2023/09/21 12:38:12;;;;;;;4.75;1.02;;;18.80;99.90;;;;;;4866512;29;20034;-88
2023/09/21 12:40:38;;;;;;;2.65;1.00;;;19.10;99.90;;;;;;4860281;29;20050;-87
2023/09/21 12:43:09;;;;;;;7.18;1.40;;;19.50;99.90;;;;;;4855855;29;20136;-86
2023/09/21 12:45:34;;;;;;;2.20;0.68;;;19.70;99.90;;;;;;4870944;29;20075;-88
2023/09/21 12:48:01;;;;;;;6.13;0.77;;;19.90;99.90;;;;;;4873653;29;20061;-87
2023/09/21 12:50:28;;;;;;;3.17;0.60;;;20.00;99.90;;;;;;4869807;29;20116;-88